createdAt,value
2023-01-06T00:01:28.565Z,7.70
2023-01-06T00:03:58.690Z,6.67
2023-01-06T00:06:30.411Z,6.90
2023-01-06T00:09:02.004Z,5.10
2023-01-06T00:11:30.457Z,5.75
2023-01-06T00:13:59.246Z,5.67
2023-01-06T00:16:27.105Z,6.67
2023-01-06T00:18:57.054Z,5.42
2023-01-06T00:21:25.504Z,4.50
2023-01-06T00:23:53.378Z,5.08
2023-01-06T00:26:21.151Z,7.75
2023-01-06T00:28:55.109Z,6.65
2023-01-06T00:31:23.257Z,7.05
2023-01-06T00:33:50.755Z,6.58
2023-01-06T00:36:18.312Z,5.03
2023-01-06T00:38:48.123Z,4.30
2023-01-06T00:41:34.392Z,6.65
2023-01-06T00:44:02.526Z,5.37
2023-01-06T00:46:31.437Z,4.12
2023-01-06T00:49:06.354Z,6.10
2023-01-06T00:51:31.869Z,3.25
2023-01-06T00:54:00.546Z,4.40
2023-01-06T00:56:29.616Z,4.42
2023-01-06T00:58:57.327Z,5.53
2023-01-06T01:01:25.226Z,4.28
2023-01-06T01:03:53.016Z,5.37
2023-01-06T01:06:20.911Z,4.80
2023-01-06T01:08:55.512Z,4.72
2023-01-06T01:11:42.884Z,3.98
2023-01-06T01:14:12.610Z,4.65
2023-01-06T01:16:41.027Z,3.00
2023-01-06T01:19:10.138Z,4.97
2023-01-06T01:21:38.538Z,4.80
2023-01-06T01:24:06.823Z,4.50
2023-01-06T01:26:35.308Z,3.65
2023-01-06T01:29:03.097Z,1.72
2023-01-06T01:31:31.149Z,3.35
2023-01-06T01:34:00.487Z,2.85
2023-01-06T01:36:28.148Z,2.40
2023-01-06T01:38:57.561Z,3.58
2023-01-06T01:41:26.940Z,2.72
2023-01-06T01:44:02.687Z,3.85
2023-01-06T01:46:41.037Z,4.40
2023-01-06T01:49:20.160Z,3.80
2023-01-06T01:51:51.209Z,2.92
2023-01-06T01:54:25.287Z,2.90
2023-01-06T01:57:07.262Z,4.10
2023-01-06T01:59:42.139Z,4.58
2023-01-06T02:02:16.203Z,2.95
2023-01-06T02:04:52.745Z,3.70
2023-01-06T02:07:23.753Z,2.80
2023-01-06T02:10:14.243Z,5.05
2023-01-06T02:12:52.585Z,5.28
2023-01-06T02:15:31.234Z,3.77
2023-01-06T02:18:27.207Z,3.47
2023-01-06T02:21:15.009Z,4.75
2023-01-06T02:24:03.731Z,3.12
2023-01-06T02:27:10.358Z,3.95
2023-01-06T02:30:08.380Z,9.35
2023-01-06T02:33:07.639Z,3.17
2023-01-06T02:35:46.570Z,3.15
2023-01-06T02:38:37.333Z,2.65
2023-01-06T02:41:14.037Z,3.40
2023-01-06T02:44:01.746Z,3.62
2023-01-06T02:47:08.481Z,4.20
2023-01-06T02:50:02.474Z,5.62
2023-01-06T02:53:03.113Z,3.42
2023-01-06T02:55:47.519Z,4.67
2023-01-06T02:58:20.993Z,3.87
2023-01-06T03:01:06.546Z,2.60
2023-01-06T03:03:44.454Z,4.35
2023-01-06T03:06:29.035Z,5.67
2023-01-06T03:09:08.370Z,3.77
2023-01-06T03:11:51.560Z,4.40
2023-01-06T03:14:29.760Z,4.70
2023-01-06T03:17:07.493Z,5.60
2023-01-06T03:19:50.425Z,4.92
2023-01-06T03:22:27.361Z,4.67
2023-01-06T03:24:55.087Z,5.60
2023-01-06T03:27:26.336Z,4.40
2023-01-06T03:29:54.699Z,4.35
2023-01-06T03:32:35.437Z,4.87
2023-01-06T03:35:14.869Z,7.60
2023-01-06T03:37:53.304Z,5.55
2023-01-06T03:40:59.964Z,4.12
2023-01-06T03:44:00.153Z,3.90
2023-01-06T03:46:38.618Z,5.92
2023-01-06T03:49:15.358Z,4.92
2023-01-06T03:52:01.051Z,5.72
2023-01-06T03:54:58.432Z,3.70
2023-01-06T03:57:34.691Z,4.33
2023-01-06T04:00:11.613Z,4.33
2023-01-06T04:02:46.497Z,5.20
2023-01-06T04:05:23.511Z,4.67
2023-01-06T04:07:52.025Z,4.58
2023-01-06T04:10:22.352Z,5.30
2023-01-06T04:12:52.123Z,3.65
2023-01-06T04:15:25.092Z,5.30
2023-01-06T04:17:54.078Z,4.15
2023-01-06T04:20:26.072Z,3.22
2023-01-06T04:22:57.890Z,4.10
2023-01-06T04:25:26.061Z,6.12
2023-01-06T04:27:53.941Z,3.58
2023-01-06T04:30:22.058Z,3.35
2023-01-06T04:32:52.752Z,5.25
2023-01-06T04:35:20.621Z,5.95
2023-01-06T04:37:48.685Z,4.83
2023-01-06T04:40:16.340Z,5.12
2023-01-06T04:43:02.513Z,4.67
2023-01-06T04:45:30.350Z,7.33
2023-01-06T04:47:57.804Z,5.20
2023-01-06T04:50:25.386Z,5.60
2023-01-06T04:52:52.757Z,4.12
2023-01-06T04:55:20.361Z,4.20
2023-01-06T04:57:47.786Z,4.15
2023-01-06T05:00:16.630Z,5.10
2023-01-06T05:02:45.121Z,3.70
2023-01-06T05:05:14.368Z,3.98
2023-01-06T05:07:42.078Z,5.22
2023-01-06T05:10:10.689Z,4.12
2023-01-06T05:12:38.334Z,3.27
2023-01-06T05:15:07.508Z,4.85
2023-01-06T05:17:35.200Z,3.00
2023-01-06T05:20:02.923Z,4.12
2023-01-06T05:22:30.506Z,3.00
2023-01-06T05:24:58.112Z,3.15
2023-01-06T05:27:25.520Z,3.27
2023-01-06T05:29:53.304Z,2.98
2023-01-06T05:32:20.886Z,2.70
2023-01-06T05:34:48.464Z,3.47
2023-01-06T05:37:16.417Z,4.85
2023-01-06T05:39:44.132Z,3.15
2023-01-06T05:42:11.825Z,5.53
2023-01-06T05:44:39.520Z,4.53
2023-01-06T05:47:06.983Z,3.45
2023-01-06T05:49:34.451Z,3.55
2023-01-06T05:52:02.293Z,3.83
2023-01-06T05:54:30.030Z,3.02
2023-01-06T05:56:57.826Z,5.33
2023-01-06T05:59:25.640Z,4.30
2023-01-06T06:01:53.428Z,4.65
2023-01-06T06:04:20.815Z,6.65
2023-01-06T06:06:48.532Z,6.55
2023-01-06T06:09:16.363Z,16.95
2023-01-06T06:11:43.936Z,5.70
2023-01-06T06:14:11.594Z,3.52
2023-01-06T06:16:39.136Z,4.85
2023-01-06T06:19:06.462Z,3.08
2023-01-06T06:21:34.587Z,3.87
2023-01-06T06:24:01.992Z,2.60
2023-01-06T06:26:29.553Z,5.37
2023-01-06T06:28:57.206Z,4.85
2023-01-06T06:31:28.983Z,3.17
2023-01-06T06:34:02.513Z,2.15
2023-01-06T06:36:31.262Z,2.72
2023-01-06T06:38:59.809Z,2.92
2023-01-06T06:41:27.368Z,3.10
2023-01-06T06:43:54.948Z,3.02
2023-01-06T06:46:22.952Z,2.60
2023-01-06T06:48:50.998Z,3.22
2023-01-06T06:51:20.817Z,3.98
2023-01-06T06:53:49.542Z,4.08
2023-01-06T06:56:19.881Z,5.10
2023-01-06T06:58:47.836Z,5.40
2023-01-06T07:01:19.044Z,4.45
2023-01-06T07:03:47.693Z,4.40
2023-01-06T07:06:22.711Z,2.90
2023-01-06T07:08:51.416Z,7.40
2023-01-06T07:11:19.788Z,7.28
2023-01-06T07:13:47.887Z,4.20
2023-01-06T07:16:15.645Z,4.17
2023-01-06T07:18:43.332Z,3.55
2023-01-06T07:21:11.182Z,7.58
2023-01-06T07:23:38.848Z,3.83
2023-01-06T07:26:06.404Z,4.40
2023-01-06T07:28:34.070Z,3.40
2023-01-06T07:31:02.044Z,4.25
2023-01-06T07:33:29.678Z,3.90
2023-01-06T07:35:57.661Z,1.90
2023-01-06T07:38:26.089Z,2.40
2023-01-06T07:40:59.226Z,3.83
2023-01-06T07:43:26.992Z,3.33
2023-01-06T07:45:54.624Z,3.95
2023-01-06T07:48:22.493Z,3.58
2023-01-06T07:50:50.188Z,2.90
2023-01-06T07:53:17.774Z,2.25
2023-01-06T07:55:54.232Z,2.87
2023-01-06T07:58:25.409Z,2.30
2023-01-06T08:00:53.166Z,3.22
2023-01-06T08:03:20.824Z,2.72
2023-01-06T08:05:48.480Z,3.25
2023-01-06T08:08:16.614Z,2.67
2023-01-06T08:10:44.463Z,2.87
2023-01-06T08:13:11.909Z,2.15
2023-01-06T08:15:40.210Z,3.52
2023-01-06T08:18:08.023Z,1.85
2023-01-06T08:20:35.704Z,1.92
2023-01-06T08:23:03.520Z,2.20
2023-01-06T08:25:31.428Z,2.62
2023-01-06T08:27:59.835Z,2.02
2023-01-06T08:30:28.188Z,2.02
2023-01-06T08:33:00.073Z,2.33
2023-01-06T08:35:27.779Z,2.40
2023-01-06T08:37:55.621Z,3.35
2023-01-06T08:40:23.521Z,4.45
2023-01-06T08:42:51.394Z,2.72
2023-01-06T08:45:21.776Z,4.17
2023-01-06T08:47:49.379Z,2.75
2023-01-06T08:50:17.279Z,4.10
2023-01-06T08:52:44.996Z,2.17
2023-01-06T08:55:12.466Z,3.80
2023-01-06T08:57:40.089Z,2.60
2023-01-06T09:00:09.453Z,2.75
2023-01-06T09:02:37.269Z,1.80
2023-01-06T09:05:05.958Z,2.12
2023-01-06T09:07:33.910Z,3.10
2023-01-06T09:10:01.504Z,2.75
2023-01-06T09:12:29.099Z,2.65
2023-01-06T09:14:56.898Z,4.17
2023-01-06T09:17:24.664Z,2.72
2023-01-06T09:19:52.354Z,2.52
2023-01-06T09:22:19.969Z,1.55
2023-01-06T09:24:47.660Z,2.47
2023-01-06T09:27:15.433Z,2.37
2023-01-06T09:29:43.013Z,1.70
2023-01-06T09:32:10.972Z,1.80
2023-01-06T09:34:38.635Z,3.55
2023-01-06T09:37:06.206Z,4.33
2023-01-06T09:39:34.001Z,2.67
2023-01-06T09:42:40.685Z,2.15
2023-01-06T09:45:18.946Z,3.45
2023-01-06T09:47:53.890Z,1.70
2023-01-06T09:50:44.344Z,2.55
2023-01-06T09:53:17.396Z,5.05
2023-01-06T09:55:57.255Z,3.22
2023-01-06T09:58:30.343Z,2.25
2023-01-06T10:01:02.930Z,3.02
2023-01-06T10:03:30.971Z,2.25
2023-01-06T10:06:44.178Z,1.37
2023-01-06T10:09:35.467Z,2.22
2023-01-06T10:12:31.097Z,1.85
2023-01-06T10:15:23.755Z,2.15
2023-01-06T10:18:05.679Z,2.00
2023-01-06T10:21:11.050Z,2.15
2023-01-06T10:24:18.177Z,3.72
2023-01-06T10:26:58.806Z,5.22
2023-01-06T10:29:33.870Z,3.00
2023-01-06T10:32:03.700Z,3.15
2023-01-06T10:34:35.339Z,4.53
2023-01-06T10:37:32.720Z,3.20
2023-01-06T10:40:25.050Z,2.30
2023-01-06T10:43:02.942Z,3.00
2023-01-06T10:45:41.033Z,6.62
2023-01-06T10:48:16.619Z,4.28
2023-01-06T10:50:44.249Z,4.60
2023-01-06T10:53:13.258Z,14.30
2023-01-06T10:55:52.091Z,15.95
2023-01-06T10:58:44.528Z,9.85
2023-01-06T11:01:25.003Z,9.55
2023-01-06T11:04:13.054Z,7.37
2023-01-06T11:06:59.681Z,5.17
2023-01-06T11:09:40.422Z,6.70
2023-01-06T11:12:20.010Z,4.78
2023-01-06T11:14:59.148Z,6.12
2023-01-06T11:17:29.331Z,4.70
2023-01-06T11:20:22.110Z,4.75
2023-01-06T11:22:49.913Z,3.47
2023-01-06T11:25:29.108Z,7.12
2023-01-06T11:28:19.515Z,9.35
2023-01-06T11:31:03.764Z,9.25
2023-01-06T11:33:35.961Z,2.98
2023-01-06T11:36:10.693Z,5.28
2023-01-06T11:38:46.183Z,7.87
2023-01-06T11:41:19.163Z,3.52
2023-01-06T11:43:49.204Z,3.85
2023-01-06T11:46:16.401Z,3.98
2023-01-06T11:48:52.204Z,3.52
2023-01-06T11:51:48.230Z,3.75
2023-01-06T11:54:40.351Z,3.62
2023-01-06T11:57:19.645Z,5.03
2023-01-06T12:00:26.217Z,3.75
2023-01-06T12:03:24.845Z,4.00
2023-01-06T12:06:12.522Z,4.12
2023-01-06T12:09:01.721Z,2.92
2023-01-06T12:11:49.699Z,2.67
2023-01-06T12:14:30.061Z,3.27
2023-01-06T12:17:13.143Z,3.45
2023-01-06T12:19:55.726Z,5.85
2023-01-06T12:22:37.997Z,5.42
2023-01-06T12:25:10.590Z,4.28
2023-01-06T12:27:52.144Z,3.30
2023-01-06T12:30:53.891Z,3.27
2023-01-06T12:33:41.957Z,4.33
2023-01-06T12:36:23.614Z,4.75
2023-01-06T12:39:12.293Z,3.27
2023-01-06T12:41:51.237Z,4.67
2023-01-06T12:44:53.396Z,4.45
2023-01-06T12:47:49.818Z,1.95
2023-01-06T12:50:43.320Z,4.28
2023-01-06T12:53:26.758Z,4.03
2023-01-06T12:56:28.331Z,2.42
2023-01-06T12:59:28.716Z,1.52
2023-01-06T13:02:23.860Z,3.05
2023-01-06T13:05:06.051Z,2.12
2023-01-06T13:08:12.576Z,4.70
2023-01-06T13:10:46.709Z,3.87
2023-01-06T13:13:55.251Z,3.25
2023-01-06T13:16:42.810Z,2.42
2023-01-06T13:19:19.078Z,5.12
2023-01-06T13:21:51.062Z,4.90
2023-01-06T13:24:43.272Z,5.45
2023-01-06T13:27:37.107Z,3.50
2023-01-06T13:31:00.916Z,3.25
2023-01-06T13:33:49.359Z,4.25
2023-01-06T13:36:27.949Z,2.42
2023-01-06T13:39:10.032Z,3.92
2023-01-06T13:41:40.127Z,4.75
2023-01-06T13:44:18.990Z,3.75
2023-01-06T13:46:49.445Z,4.10
2023-01-06T13:49:17.236Z,3.52
2023-01-06T13:51:46.516Z,4.35
2023-01-06T13:54:45.601Z,7.78
2023-01-06T13:57:30.313Z,3.47
2023-01-06T14:00:12.507Z,6.22
2023-01-06T14:02:45.577Z,2.75
2023-01-06T14:05:28.092Z,3.87
2023-01-06T14:08:02.274Z,5.33
2023-01-06T14:10:40.085Z,6.62
2023-01-06T14:13:29.737Z,6.40
2023-01-06T14:16:13.136Z,7.87
2023-01-06T14:18:49.955Z,7.92
2023-01-06T14:21:29.386Z,6.97
2023-01-06T14:24:01.834Z,6.17
2023-01-06T14:27:01.625Z,4.05
2023-01-06T14:29:46.138Z,3.65
2023-01-06T14:32:22.056Z,4.83
2023-01-06T14:34:57.857Z,6.45
2023-01-06T14:37:38.689Z,6.30
2023-01-06T14:40:11.102Z,10.13
2023-01-06T14:42:43.204Z,7.80
2023-01-06T14:45:25.393Z,12.35
2023-01-06T14:48:10.055Z,11.78
2023-01-06T14:50:47.615Z,6.37
2023-01-06T14:53:38.271Z,7.15
2023-01-06T14:56:07.124Z,8.05
2023-01-06T14:58:36.688Z,6.22
2023-01-06T15:01:06.676Z,4.65
2023-01-06T15:03:34.914Z,6.20
2023-01-06T15:06:19.378Z,9.60
2023-01-06T15:08:47.325Z,11.38
2023-01-06T15:11:28.545Z,13.03
2023-01-06T15:13:56.629Z,14.38
2023-01-06T15:16:38.799Z,25.00
2023-01-06T15:19:10.075Z,20.17
2023-01-06T15:21:44.195Z,19.17
2023-01-06T15:24:25.042Z,12.58
2023-01-06T15:26:56.560Z,12.93
2023-01-06T15:29:25.462Z,21.07
2023-01-06T15:31:54.415Z,27.73
2023-01-06T15:34:39.412Z,36.03
2023-01-06T15:37:18.366Z,33.75
2023-01-06T15:39:46.802Z,41.02
2023-01-06T15:42:23.707Z,47.23
2023-01-06T15:44:59.897Z,47.93
2023-01-06T15:47:38.075Z,56.18
2023-01-06T15:50:18.493Z,53.00
2023-01-06T15:53:00.377Z,51.02
2023-01-06T15:55:43.666Z,44.50
2023-01-06T15:58:34.904Z,48.23
2023-01-06T16:01:10.630Z,43.92
2023-01-06T16:03:39.287Z,46.48
2023-01-06T16:06:16.224Z,54.80
2023-01-06T16:08:43.946Z,61.80
2023-01-06T16:11:44.019Z,56.45
2023-01-06T16:14:34.568Z,66.10
2023-01-06T16:17:16.561Z,82.95
2023-01-06T16:19:56.660Z,59.77
2023-01-06T16:22:38.194Z,60.05
2023-01-06T16:25:22.839Z,68.30
2023-01-06T16:27:52.919Z,79.90
2023-01-06T16:30:29.071Z,71.77
2023-01-06T16:32:59.758Z,64.42
2023-01-06T16:35:31.630Z,62.50
2023-01-06T16:37:59.562Z,62.80
2023-01-06T16:40:29.560Z,65.42
2023-01-06T16:43:00.677Z,61.98
2023-01-06T16:45:38.203Z,66.53
2023-01-06T16:48:06.483Z,56.55
2023-01-06T16:50:39.248Z,44.70
2023-01-06T16:53:17.790Z,35.00
2023-01-06T16:55:45.934Z,41.40
2023-01-06T16:58:22.245Z,57.98
2023-01-06T17:00:53.680Z,44.50
2023-01-06T17:03:31.261Z,51.83
2023-01-06T17:05:58.838Z,79.27
2023-01-06T17:08:32.242Z,51.77
2023-01-06T17:11:01.589Z,46.02
2023-01-06T17:13:36.182Z,34.92
2023-01-06T17:16:14.968Z,39.08
2023-01-06T17:18:59.168Z,34.33
2023-01-06T17:21:36.914Z,34.08
2023-01-06T17:24:15.035Z,41.20
2023-01-06T17:26:48.175Z,39.85
2023-01-06T17:29:20.166Z,49.40
2023-01-06T17:31:57.274Z,53.35
2023-01-06T17:34:35.562Z,38.48
2023-01-06T17:37:17.543Z,43.17
2023-01-06T17:39:47.002Z,60.12
2023-01-06T17:42:23.209Z,73.80
2023-01-06T17:44:57.046Z,88.95
2023-01-06T17:47:29.002Z,93.58
2023-01-06T17:49:59.911Z,67.78
2023-01-06T17:52:39.441Z,77.45
2023-01-06T17:55:31.381Z,58.25
2023-01-06T17:57:59.122Z,50.58
2023-01-06T18:00:34.384Z,47.70
2023-01-06T18:03:05.358Z,60.30
2023-01-06T18:05:38.409Z,64.45
2023-01-06T18:08:13.835Z,60.48
2023-01-06T18:10:50.847Z,59.98
2023-01-06T18:13:26.175Z,73.52
2023-01-06T18:15:58.626Z,76.50
2023-01-06T18:18:40.579Z,95.50
2023-01-06T18:21:16.185Z,96.90
2023-01-06T18:23:52.285Z,104.17
2023-01-06T18:26:31.092Z,113.50
2023-01-06T18:29:07.396Z,89.87
2023-01-06T18:31:38.768Z,97.72
2023-01-06T18:34:37.588Z,89.95
2023-01-06T18:37:05.746Z,117.42
2023-01-06T18:39:44.384Z,87.67
2023-01-06T18:42:31.670Z,89.42
2023-01-06T18:45:13.912Z,78.17
2023-01-06T18:47:43.792Z,60.15
2023-01-06T18:50:42.530Z,59.98
2023-01-06T18:53:19.060Z,119.30
2023-01-06T18:55:50.592Z,120.97
2023-01-06T18:58:49.715Z,113.08
2023-01-06T19:01:31.904Z,86.40
2023-01-06T19:04:22.432Z,66.53
2023-01-06T19:07:01.734Z,49.93
2023-01-06T19:09:42.628Z,58.58
2023-01-06T19:12:35.262Z,70.35
2023-01-06T19:15:20.848Z,150.78
2023-01-06T19:17:50.214Z,144.97
2023-01-06T19:20:29.828Z,107.83
2023-01-06T19:22:57.567Z,102.58
2023-01-06T19:25:42.477Z,107.47
2023-01-06T19:28:22.644Z,111.47
2023-01-06T19:30:58.972Z,124.70
2023-01-06T19:33:46.607Z,135.28
2023-01-06T19:36:43.769Z,136.18
2023-01-06T19:39:32.309Z,167.53
2023-01-06T19:42:17.290Z,132.55
2023-01-06T19:44:48.403Z,118.72
2023-01-06T19:47:30.031Z,93.22
2023-01-06T19:50:03.062Z,93.17
2023-01-06T19:52:39.896Z,112.92
2023-01-06T19:55:22.066Z,115.55
2023-01-06T19:58:00.104Z,107.92
2023-01-06T20:00:51.996Z,133.63
2023-01-06T20:03:35.700Z,125.87
2023-01-06T20:06:04.235Z,125.25
2023-01-06T20:08:31.987Z,128.62
2023-01-06T20:10:59.656Z,131.45
2023-01-06T20:13:27.272Z,139.60
2023-01-06T20:15:54.879Z,148.57
2023-01-06T20:18:22.398Z,150.60
2023-01-06T20:20:49.891Z,128.60
2023-01-06T20:23:17.846Z,111.68
2023-01-06T20:25:45.827Z,108.32
2023-01-06T20:28:13.581Z,102.20
2023-01-06T20:30:41.344Z,95.47
2023-01-06T20:33:08.993Z,86.28
2023-01-06T20:35:36.749Z,94.10
2023-01-06T20:38:04.472Z,84.20
2023-01-06T20:40:32.311Z,81.10
2023-01-06T20:42:59.918Z,82.60
2023-01-06T20:45:27.588Z,81.28
2023-01-06T20:47:55.349Z,80.22
2023-01-06T20:50:23.028Z,91.45
2023-01-06T20:52:50.661Z,83.85
2023-01-06T20:55:18.064Z,87.45
2023-01-06T20:57:45.390Z,91.17
2023-01-06T21:00:14.021Z,85.25
2023-01-06T21:02:41.581Z,77.03
2023-01-06T21:05:10.051Z,74.25
2023-01-06T21:07:37.984Z,86.05
2023-01-06T21:10:06.887Z,92.37
2023-01-06T21:12:34.738Z,99.80
2023-01-06T21:15:02.377Z,89.50
2023-01-06T21:17:30.133Z,144.55
2023-01-06T21:19:57.644Z,123.95
2023-01-06T21:22:25.325Z,117.35
2023-01-06T21:24:53.259Z,109.85
2023-01-06T21:27:20.931Z,119.67
2023-01-06T21:29:48.356Z,129.65
2023-01-06T21:32:16.038Z,125.82
2023-01-06T21:34:43.567Z,123.28
2023-01-06T21:37:10.972Z,126.22
2023-01-06T21:39:38.810Z,127.38
2023-01-06T21:42:24.828Z,127.40
2023-01-06T21:44:52.949Z,131.20
2023-01-06T21:47:20.654Z,126.90
2023-01-06T21:49:48.160Z,138.52
2023-01-06T21:52:16.725Z,160.57
2023-01-06T21:54:44.545Z,216.12
2023-01-06T21:57:12.932Z,188.68
2023-01-06T21:59:40.538Z,166.00
2023-01-06T22:02:09.218Z,177.10
2023-01-06T22:04:36.763Z,156.02
2023-01-06T22:07:08.517Z,141.90
2023-01-06T22:09:39.107Z,119.08
2023-01-06T22:12:09.276Z,128.55
2023-01-06T22:14:37.421Z,113.75
2023-01-06T22:17:05.105Z,119.35
2023-01-06T22:19:32.889Z,128.42
2023-01-06T22:22:01.350Z,113.62
2023-01-06T22:24:32.051Z,112.90
2023-01-06T22:26:59.685Z,111.62
2023-01-06T22:29:27.644Z,103.10
2023-01-06T22:32:04.710Z,101.60
2023-01-06T22:34:32.862Z,106.80
2023-01-06T22:37:00.445Z,105.12
2023-01-06T22:39:28.380Z,103.27
2023-01-06T22:41:55.910Z,103.07
2023-01-06T22:44:23.564Z,110.10
2023-01-06T22:46:51.298Z,110.00
2023-01-06T22:49:19.068Z,110.97
2023-01-06T22:51:46.887Z,113.20
2023-01-06T22:54:14.298Z,109.97
2023-01-06T22:56:42.100Z,106.07
2023-01-06T22:59:10.022Z,106.43
2023-01-06T23:01:37.478Z,108.47
2023-01-06T23:04:05.319Z,107.63
2023-01-06T23:06:33.710Z,108.05
2023-01-06T23:09:01.364Z,111.52
2023-01-06T23:11:30.748Z,117.13
2023-01-06T23:13:58.733Z,112.32
2023-01-06T23:16:28.590Z,117.77
2023-01-06T23:18:56.464Z,126.55
2023-01-06T23:21:26.801Z,125.97
2023-01-06T23:23:54.539Z,126.40
2023-01-06T23:26:34.125Z,122.55
2023-01-06T23:29:02.160Z,136.45
2023-01-06T23:31:34.658Z,120.57
2023-01-06T23:34:12.062Z,122.60
2023-01-06T23:36:40.283Z,122.72
2023-01-06T23:39:11.512Z,122.40
2023-01-06T23:41:40.237Z,131.70
2023-01-06T23:44:11.872Z,126.10
2023-01-06T23:46:39.870Z,159.80
2023-01-06T23:49:11.387Z,217.30
2023-01-06T23:51:39.990Z,113.97
2023-01-06T23:54:09.745Z,81.97
2023-01-06T23:56:38.058Z,130.25
2023-01-06T23:59:09.988Z,118.42
